Time;durP1;ratioP1;P1;durP2;ratioP2;P2;SDS_P1;SDS_P2;PMS_P1;PMS_P2;Temp;Humidity;BMP_temperature;BMP_pressure;BME280_temperature;BME280_humidity;BME280_pressure;Samples;Min_cycle;Max_cycle;Signal;HPM_P1;HPM_P2
2023/03/27 00:01:14;;;;;;;0.63;0.50;;;;;;;2.21;69.75;100554.50;5056583;28;20483;-68
2023/03/27 00:03:41;;;;;;;0.95;0.50;;;;;;;2.13;70.20;100559.72;5057061;28;20036;-67
2023/03/27 00:06:15;;;;;;;1.52;0.32;;;;;;;2.12;70.13;100561.56;5056269;28;20040;-68
2023/03/27 00:08:41;;;;;;;0.47;0.30;;;;;;;2.05;70.74;100565.78;5055202;28;20418;-68
2023/03/27 00:11:07;;;;;;;0.93;0.50;;;;;;;1.95;70.55;100565.00;5073745;28;20059;-67
2023/03/27 00:13:32;;;;;;;0.40;0.40;;;;;;;1.76;71.23;100566.81;5074592;28;20043;-68
2023/03/27 00:15:58;;;;;;;2.28;0.57;;;;;;;1.68;71.73;100565.84;5075008;28;20070;-68
2023/03/27 00:18:25;;;;;;;1.05;0.50;;;;;;;1.61;72.58;100568.25;5075194;28;20032;-68
2023/03/27 00:20:51;;;;;;;0.75;0.60;;;;;;;1.43;72.77;100565.56;5074459;28;20070;-68
2023/03/27 00:23:18;;;;;;;2.47;0.43;;;;;;;1.54;72.89;100565.34;5056163;28;20036;-68
2023/03/27 00:25:47;;;;;;;0.90;0.50;;;;;;;1.52;72.77;100574.44;5073557;28;20045;-68
2023/03/27 00:28:13;;;;;;;0.85;0.50;;;;;;;1.38;72.76;100579.22;5055996;28;20028;-67
2023/03/27 00:30:40;;;;;;;0.65;0.43;;;;;;;1.37;73.16;100572.28;5073815;28;20229;-67
2023/03/27 00:33:09;;;;;;;0.90;0.60;;;;;;;1.66;72.27;100571.31;5073924;28;20032;-67
2023/03/27 00:35:35;;;;;;;0.70;0.50;;;;;;;1.50;72.25;100547.25;5073777;28;20028;-68
2023/03/27 00:38:00;;;;;;;1.23;0.50;;;;;;;1.51;72.32;100556.88;5056256;28;20059;-68
2023/03/27 00:40:26;;;;;;;1.35;0.68;;;;;;;1.67;71.71;100577.47;5039831;28;20036;-67
2023/03/27 00:42:56;;;;;;;1.10;0.50;;;;;;;1.57;71.96;100564.25;5074394;28;20479;-68
2023/03/27 00:45:29;;;;;;;1.15;0.60;;;;;;;1.63;71.77;100574.25;5055109;28;20086;-68
2023/03/27 00:48:01;;;;;;;1.00;0.60;;;;;;;1.58;71.69;100569.38;5074247;28;20024;-67
2023/03/27 00:50:33;;;;;;;0.70;0.52;;;;;;;1.54;72.17;100567.19;5074227;28;20032;-67
2023/03/27 00:53:22;;;;;;;0.57;0.57;;;;;;;1.49;71.78;100570.28;5072946;28;20039;-68
2023/03/27 00:55:51;;;;;;;0.82;0.57;;;;;;;1.41;72.00;100572.81;5073859;28;20378;-67
2023/03/27 00:58:24;;;;;;;0.80;0.70;;;;;;;1.34;71.93;100563.78;5055695;28;20189;-67
2023/03/27 01:00:52;;;;;;;3.80;0.70;;;;;;;1.29;72.48;100572.19;5073079;28;20024;-67
2023/03/27 01:03:19;;;;;;;1.05;0.60;;;;;;;1.23;72.59;100570.09;5072946;28;20033;-68
2023/03/27 01:05:46;;;;;;;1.75;0.70;;;;;;;1.17;72.77;100568.84;5055981;28;20097;-68
2023/03/27 01:08:13;;;;;;;3.22;0.80;;;;;;;1.11;73.06;100561.47;5055602;28;20040;-67
2023/03/27 01:11:00;;;;;;;0.85;0.70;;;;;;;1.13;73.27;100569.28;5073774;28;20028;-68
2023/03/27 01:14:04;;;;;;;1.55;0.70;;;;;;;1.07;73.04;100556.63;5073654;28;20447;-68
2023/03/27 01:16:47;;;;;;;1.30;0.65;;;;;;;1.05;73.68;100558.56;5073721;28;20028;-68
2023/03/27 01:19:31;;;;;;;1.52;0.80;;;;;;;1.04;73.44;100563.03;5054990;28;20028;-68
2023/03/27 01:21:59;;;;;;;1.30;0.70;;;;;;;1.01;73.58;100565.13;5077511;28;20015;-67
2023/03/27 01:24:41;;;;;;;1.65;0.90;;;;;;;0.89;73.82;100557.34;5095444;28;20067;-67
2023/03/27 01:27:36;;;;;;;2.45;0.93;;;;;;;1.04;73.10;100564.84;5076706;28;20032;-67
2023/03/27 01:30:38;;;;;;;1.13;0.80;;;;;;;1.06;73.07;100568.16;5057120;28;20030;-68
2023/03/27 01:33:13;;;;;;;1.05;0.70;;;;;;;1.00;72.92;100564.31;5017646;28;20387;-68
2023/03/27 01:35:53;;;;;;;1.55;0.65;;;;;;;0.94;72.84;100571.00;5073768;28;20564;-67
2023/03/27 01:38:52;;;;;;;1.65;0.50;;;;;;;0.92;73.18;100572.94;5073472;28;20040;-67
2023/03/27 01:41:46;;;;;;;2.58;0.80;;;;;;;0.89;72.90;100567.09;5073271;28;20035;-67
2023/03/27 01:44:18;;;;;;;1.17;0.75;;;;;;;0.85;73.02;100571.84;5072872;28;20111;-68
2023/03/27 01:46:52;;;;;;;1.98;0.82;;;;;;;0.82;73.35;100569.47;5055709;28;20391;-68
2023/03/27 01:49:23;;;;;;;1.73;1.00;;;;;;;0.81;73.26;100570.47;5074274;28;20422;-68
2023/03/27 01:51:58;;;;;;;1.20;0.80;;;;;;;0.77;73.38;100577.03;5073110;28;20028;-67
2023/03/27 01:54:37;;;;;;;1.02;0.88;;;;;;;0.76;73.26;100571.84;5073205;28;20028;-68
2023/03/27 01:57:23;;;;;;;1.27;0.80;;;;;;;0.69;73.29;100582.19;5072996;28;20035;-67
2023/03/27 02:00:10;;;;;;;2.05;0.70;;;;;;;0.61;73.46;100582.06;5071117;28;20025;-67
2023/03/27 02:02:38;;;;;;;0.60;0.60;;;;;;;0.47;73.89;100578.03;5072247;28;20510;-68
2023/03/27 02:05:15;;;;;;;2.30;0.90;;;;;;;0.38;74.44;100579.69;5054469;28;20040;-68
2023/03/27 02:07:50;;;;;;;2.75;0.80;;;;;;;0.39;74.32;100584.00;5054681;28;20024;-68
2023/03/27 02:10:19;;;;;;;;;;;;;;;0.40;74.92;100587.50;5073032;28;20025;-68
2023/03/27 02:12:54;;;;;;;1.52;0.80;;;;;;;0.37;74.41;100582.47;5072738;28;19916;-68
2023/03/27 02:15:30;;;;;;;1.48;0.70;;;;;;;0.35;74.49;100585.25;5069490;28;20028;-67
2023/03/27 02:18:03;;;;;;;2.58;0.75;;;;;;;0.31;74.80;100581.22;5054871;28;20016;-68
2023/03/27 02:20:33;;;;;;;1.40;1.00;;;;;;;0.28;74.50;100589.44;5054810;28;20383;-68
2023/03/27 02:22:59;;;;;;;1.48;0.80;;;;;;;0.28;74.56;100586.78;5083478;28;20024;-67
2023/03/27 02:25:31;;;;;;;1.02;0.80;;;;;;;0.27;74.71;100584.28;5076361;28;20055;-67
2023/03/27 02:28:35;;;;;;;2.03;0.90;;;;;;;0.17;75.10;100589.56;5073879;28;20090;-67
2023/03/27 02:31:22;;;;;;;2.00;0.98;;;;;;;0.12;75.15;100589.97;5073648;28;20040;-68
2023/03/27 02:34:19;;;;;;;0.80;0.65;;;;;;;0.11;75.24;100585.66;5072139;28;20098;-66
2023/03/27 02:37:16;;;;;;;1.98;0.70;;;;;;;0.03;75.39;100580.19;5072222;28;20076;-67
2023/03/27 02:39:56;;;;;;;2.05;0.85;;;;;;;-0.02;75.10;100591.19;5072136;28;20127;-66
2023/03/27 02:42:45;;;;;;;1.23;0.77;;;;;;;0.00;75.46;100591.06;5072038;28;20047;-67
2023/03/27 02:45:19;;;;;;;1.55;1.08;;;;;;;-0.06;75.39;100595.09;5072380;28;20058;-67
2023/03/27 02:47:53;;;;;;;2.50;1.00;;;;;;;-0.13;75.75;100603.69;5071839;28;20040;-67
2023/03/27 02:50:24;;;;;;;0.90;0.70;;;;;;;-0.17;75.89;100600.47;5072074;28;20043;-68
2023/03/27 02:52:59;;;;;;;1.98;0.90;;;;;;;-0.21;75.87;100593.78;5071776;28;20091;-66
2023/03/27 02:55:34;;;;;;;1.40;0.90;;;;;;;-0.17;76.29;100605.75;5053453;28;20024;-67
2023/03/27 02:58:05;;;;;;;2.03;0.90;;;;;;;-0.27;76.15;100604.88;5071901;28;20024;-68
2023/03/27 03:00:38;;;;;;;1.75;1.08;;;;;;;-0.37;76.29;100598.72;5071307;28;20031;-67
2023/03/27 03:03:16;;;;;;;1.95;0.85;;;;;;;-0.42;76.25;100585.09;5053922;28;20082;-67
2023/03/27 03:05:42;;;;;;;1.10;0.82;;;;;;;-0.29;76.66;100604.22;5054037;28;20395;-67
2023/03/27 03:08:09;;;;;;;0.88;0.77;;;;;;;-0.28;76.75;100614.63;5071219;28;20452;-67
2023/03/27 03:10:36;;;;;;;2.90;0.90;;;;;;;-0.28;76.56;100611.16;5071892;28;20550;-67
2023/03/27 03:13:01;;;;;;;2.33;0.82;;;;;;;-0.34;76.68;100611.69;5072687;28;20471;-67
2023/03/27 03:15:27;;;;;;;1.20;0.80;;;;;;;-0.37;76.81;100619.88;5020606;28;20031;-68
2023/03/27 03:17:52;;;;;;;2.08;0.98;;;;;;;-0.62;76.93;100590.28;5071628;28;20033;-67
2023/03/27 03:20:18;;;;;;;3.35;1.05;;;;;;;-0.45;77.24;100620.56;5054263;28;20043;-68
2023/03/27 03:22:44;;;;;;;2.17;1.00;;;;;;;-0.54;77.76;100624.81;5078116;28;20093;-67
2023/03/27 03:25:09;;;;;;;1.00;0.80;;;;;;;-0.60;77.37;100625.34;5075335;28;20044;-67
2023/03/27 03:27:36;;;;;;;1.70;1.00;;;;;;;-0.55;77.85;100630.25;5082107;28;20017;-67
2023/03/27 03:30:03;;;;;;;1.48;1.00;;;;;;;-0.53;77.60;100618.59;5072796;28;20025;-66
2023/03/27 03:32:29;;;;;;;2.60;0.98;;;;;;;-0.53;78.20;100621.22;5073178;28;20016;-67
2023/03/27 03:34:55;;;;;;;1.58;0.90;;;;;;;-0.49;77.92;100622.63;5071300;28;20122;-67
2023/03/27 03:37:27;;;;;;;1.70;0.90;;;;;;;-0.52;77.74;100627.34;5071480;28;20055;-67
2023/03/27 03:39:53;;;;;;;1.65;1.10;;;;;;;-0.48;77.61;100631.38;5071382;28;20090;-68
2023/03/27 03:42:18;;;;;;;2.38;0.80;;;;;;;-0.55;77.68;100633.72;5071439;28;20716;-68
2023/03/27 03:44:44;;;;;;;1.50;1.10;;;;;;;-0.58;77.88;100631.34;5053009;28;20042;-67
2023/03/27 03:47:09;;;;;;;1.20;1.10;;;;;;;-0.71;77.62;100614.84;5036665;28;20032;-66
2023/03/27 03:49:35;;;;;;;1.42;1.00;;;;;;;-0.74;77.96;100621.22;5053306;28;20111;-68
2023/03/27 03:52:00;;;;;;;1.67;1.05;;;;;;;-0.75;78.06;100632.78;5053143;28;20036;-68
2023/03/27 03:54:25;;;;;;;1.10;0.80;;;;;;;-0.78;78.01;100634.84;5035951;28;20047;-68
2023/03/27 03:56:51;;;;;;;1.63;1.02;;;;;;;-0.83;78.48;100635.25;5036150;28;20084;-67
2023/03/27 03:59:16;;;;;;;1.50;0.93;;;;;;;-0.84;77.79;100643.28;5071287;28;20475;-68
2023/03/27 04:01:42;;;;;;;2.08;1.00;;;;;;;-0.81;78.29;100637.75;5071546;28;20025;-68
2023/03/27 04:04:08;;;;;;;1.67;0.95;;;;;;;-0.85;78.22;100638.97;5036842;28;20205;-68
2023/03/27 04:06:36;;;;;;;2.60;0.98;;;;;;;-0.94;78.15;100637.94;5071154;28;20055;-68
2023/03/27 04:09:03;;;;;;;3.88;0.98;;;;;;;-0.95;78.57;100637.09;5037180;28;20024;-69
2023/03/27 04:11:29;;;;;;;1.45;1.05;;;;;;;-1.03;78.29;100631.63;5056267;28;20035;-67
2023/03/27 04:13:54;;;;;;;1.70;1.30;;;;;;;-0.90;78.95;100638.50;5070587;28;20021;-66
2023/03/27 04:16:21;;;;;;;1.52;1.08;;;;;;;-0.97;78.48;100631.09;5071259;28;20033;-67
2023/03/27 04:18:49;;;;;;;1.85;1.23;;;;;;;-0.99;78.99;100617.22;5071520;28;20116;-67
2023/03/27 04:21:16;;;;;;;3.58;0.98;;;;;;;-0.99;78.79;100608.47;5052631;28;20108;-67
2023/03/27 04:23:43;;;;;;;6.78;1.25;;;;;;;-1.12;79.42;100632.41;5062779;28;20078;-67
2023/03/27 04:26:11;;;;;;;2.83;1.10;;;;;;;-1.10;80.15;100643.66;5081211;28;20041;-67
2023/03/27 04:28:37;;;;;;;1.15;0.98;;;;;;;-1.10;80.95;100648.94;5075405;28;20028;-68
2023/03/27 04:31:09;;;;;;;2.90;1.20;;;;;;;-1.07;80.73;100650.50;5076698;28;20056;-68
2023/03/27 04:33:38;;;;;;;2.10;0.98;;;;;;;-1.08;80.48;100656.75;5056852;28;20060;-69
2023/03/27 04:36:06;;;;;;;4.35;1.20;;;;;;;-1.10;80.47;100651.59;5056775;28;20064;-67
2023/03/27 04:38:33;;;;;;;2.85;1.25;;;;;;;-1.13;80.67;100649.19;5074063;28;20025;-65
2023/03/27 04:40:58;;;;;;;3.22;1.10;;;;;;;-1.16;81.01;100644.16;5074190;28;20028;-65
2023/03/27 04:43:24;;;;;;;1.50;1.10;;;;;;;-1.15;81.54;100648.50;5073591;28;20025;-67
2023/03/27 04:45:52;;;;;;;2.38;1.20;;;;;;;-1.15;81.11;100640.59;5073429;28;20055;-68
2023/03/27 04:48:18;;;;;;;1.52;1.00;;;;;;;-1.14;81.46;100641.41;5038888;28;20028;-67
2023/03/27 04:50:48;;;;;;;1.38;1.10;;;;;;;-1.11;81.56;100652.56;5056015;28;20083;-67
2023/03/27 04:53:19;;;;;;;2.30;1.10;;;;;;;-1.21;81.35;100623.44;5055550;28;20029;-67
2023/03/27 04:55:45;;;;;;;4.75;1.08;;;;;;;-1.13;81.38;100649.19;5074850;28;20570;-67
2023/03/27 04:58:12;;;;;;;1.95;1.05;;;;;;;-0.92;80.57;100640.47;5056234;28;20036;-66
2023/03/27 05:00:38;;;;;;;2.90;1.10;;;;;;;-1.04;80.88;100645.78;5039554;28;20455;-67
2023/03/27 05:03:03;;;;;;;2.35;1.30;;;;;;;-1.04;81.04;100647.59;5056244;28;20062;-67
2023/03/27 05:05:29;;;;;;;1.80;1.20;;;;;;;-1.01;81.39;100642.06;5073794;28;20024;-67
2023/03/27 05:07:55;;;;;;;2.92;1.38;;;;;;;-1.10;81.52;100632.25;5073625;28;20021;-67
2023/03/27 05:10:20;;;;;;;1.80;1.27;;;;;;;-0.79;81.60;100639.28;5078450;28;20047;-67
2023/03/27 05:12:47;;;;;;;2.20;1.52;;;;;;;-0.68;81.28;100643.66;5055252;28;20255;-67
2023/03/27 05:15:15;;;;;;;3.85;2.13;;;;;;;-0.37;80.64;100644.50;5072561;28;20028;-66
2023/03/27 05:17:42;;;;;;;6.57;2.90;;;;;;;-0.16;80.01;100648.94;5072051;28;20078;-67
2023/03/27 05:20:13;;;;;;;6.10;3.90;;;;;;;-0.37;79.92;100648.97;5072446;28;20051;-68
2023/03/27 05:22:40;;;;;;;3.92;2.45;;;;;;;0.53;79.98;100659.53;5073481;28;20158;-67
2023/03/27 05:25:07;;;;;;;4.72;3.00;;;;;;;1.68;76.87;100659.53;5072275;28;20124;-67
2023/03/27 05:27:33;;;;;;;4.68;2.78;;;;;;;2.47;74.42;100655.50;5066831;28;20020;-68
2023/03/27 05:29:58;;;;;;;3.47;2.13;;;;;;;2.50;72.94;100649.88;5057965;28;20066;-68
2023/03/27 05:32:24;;;;;;;3.42;2.10;;;;;;;1.50;73.21;100650.66;5058226;28;20024;-66
2023/03/27 05:34:49;;;;;;;8.48;2.22;;;;;;;0.91;74.77;100649.91;5055855;28;20039;-67
2023/03/27 05:37:16;;;;;;;4.25;1.98;;;;;;;0.65;75.61;100654.94;5073011;28;20025;-68
2023/03/27 05:39:45;;;;;;;5.68;1.90;;;;;;;0.46;76.31;100650.44;5073830;28;20064;-68
2023/03/27 05:42:10;;;;;;;5.15;2.60;;;;;;;0.47;77.08;100655.63;5073289;28;20098;-69
2023/03/27 05:44:35;;;;;;;4.88;2.90;;;;;;;0.51;77.00;100660.66;5055135;28;20052;-68
2023/03/27 05:47:01;;;;;;;2.70;2.30;;;;;;;0.46;77.57;100671.63;5054998;28;20036;-68
2023/03/27 05:49:27;;;;;;;5.07;2.75;;;;;;;0.44;78.31;100666.47;5056099;28;20043;-67
2023/03/27 05:51:52;;;;;;;5.50;2.55;;;;;;;0.47;78.71;100668.84;5073586;28;20047;-68
2023/03/27 05:54:18;;;;;;;2.90;2.15;;;;;;;0.42;79.04;100665.78;5042358;28;20034;-68
2023/03/27 05:56:43;;;;;;;3.35;2.08;;;;;;;0.46;79.16;100658.38;5035072;28;20029;-68
2023/03/27 05:59:08;;;;;;;2.03;1.73;;;;;;;0.60;79.36;100678.34;5018650;28;20102;-68
2023/03/27 06:01:34;;;;;;;3.83;1.80;;;;;;;0.58;79.59;100675.84;5053551;28;20036;-68
2023/03/27 06:04:00;;;;;;;4.10;1.98;;;;;;;0.69;78.95;100685.44;5035392;28;20017;-68
2023/03/27 06:06:26;;;;;;;3.28;2.28;;;;;;;0.61;79.36;100682.66;5017984;28;20036;-68
2023/03/27 06:08:52;;;;;;;3.92;2.15;;;;;;;0.74;79.12;100693.84;5017803;28;20029;-68
2023/03/27 06:11:17;;;;;;;3.92;2.15;;;;;;;1.00;79.03;100688.81;5051627;28;20054;-69
2023/03/27 06:13:43;;;;;;;8.77;2.17;;;;;;;1.20;79.00;100680.88;5035015;28;20033;-68
2023/03/27 06:16:09;;;;;;;6.57;2.70;;;;;;;1.47;78.72;100688.06;5034423;28;20506;-68
2023/03/27 06:18:35;;;;;;;2.33;1.70;;;;;;;1.63;78.29;100696.25;5034390;28;20094;-68
2023/03/27 06:21:01;;;;;;;4.65;1.80;;;;;;;1.79;78.02;100703.63;5034757;28;20033;-68
2023/03/27 06:23:26;;;;;;;2.83;1.90;;;;;;;1.75;78.09;100679.16;5018240;28;20139;-68
2023/03/27 06:25:52;;;;;;;3.42;1.95;;;;;;;2.10;77.78;100717.47;5051859;28;20056;-68
2023/03/27 06:28:18;;;;;;;5.32;1.60;;;;;;;2.19;77.13;100713.94;5052914;28;20032;-68
2023/03/27 06:30:46;;;;;;;5.22;2.25;;;;;;;2.32;77.61;100706.47;5065709;28;20056;-68
2023/03/27 06:33:14;;;;;;;2.95;2.05;;;;;;;1.92;77.85;100716.53;5039827;28;20037;-68
2023/03/27 06:35:40;;;;;;;6.95;2.70;;;;;;;1.86;78.73;100721.47;5036219;28;20094;-67
2023/03/27 06:38:06;;;;;;;3.80;2.40;;;;;;;1.91;79.05;100721.00;5036662;28;20036;-67
2023/03/27 06:40:34;;;;;;;11.20;2.67;;;;;;;2.06;80.01;100727.53;5051492;28;20055;-66
2023/03/27 06:43:01;;;;;;;4.45;2.72;;;;;;;2.32;79.97;100727.69;5051656;28;20111;-68
2023/03/27 06:45:32;;;;;;;4.85;2.40;;;;;;;2.46;80.28;100728.19;5033531;28;20619;-68
2023/03/27 06:48:01;;;;;;;5.75;3.25;;;;;;;2.62;80.09;100700.97;5052381;28;20111;-68
2023/03/27 06:50:28;;;;;;;3.55;2.30;;;;;;;3.15;79.51;100730.22;5051726;28;20059;-68
2023/03/27 06:52:54;;;;;;;4.15;2.08;;;;;;;3.38;78.45;100729.72;5034413;28;20139;-68
2023/03/27 06:55:21;;;;;;;2.72;1.38;;;;;;;3.57;78.40;100731.38;5034093;28;20441;-68
2023/03/27 06:57:49;;;;;;;2.00;1.20;;;;;;;3.59;77.81;100732.06;5051940;28;20110;-68
2023/03/27 07:00:18;;;;;;;3.80;1.20;;;;;;;3.76;77.73;100729.34;5051775;28;20033;-68
2023/03/27 07:02:53;;;;;;;1.52;0.90;;;;;;;4.03;77.66;100732.00;5052209;28;20036;-68
2023/03/27 07:05:19;;;;;;;2.17;1.00;;;;;;;4.16;76.38;100735.88;5033978;28;20108;-68
2023/03/27 07:07:45;;;;;;;1.55;0.73;;;;;;;4.05;76.24;100738.00;5034008;28;20029;-68
2023/03/27 07:10:11;;;;;;;1.88;0.95;;;;;;;4.12;75.45;100723.06;5033790;28;20039;-68
2023/03/27 07:12:37;;;;;;;2.33;0.80;;;;;;;4.31;75.26;100728.16;5051419;28;20365;-68
2023/03/27 07:15:05;;;;;;;1.35;0.75;;;;;;;4.51;74.49;100738.56;5033248;28;20480;-68
2023/03/27 07:17:33;;;;;;;1.67;0.88;;;;;;;4.77;73.70;100738.44;5051767;28;20075;-68
2023/03/27 07:19:59;;;;;;;3.25;0.90;;;;;;;4.90;72.33;100718.31;5051523;28;20043;-68
2023/03/27 07:22:25;;;;;;;1.38;0.70;;;;;;;5.09;71.84;100735.84;5051848;28;20017;-68
2023/03/27 07:24:51;;;;;;;1.77;0.70;;;;;;;5.31;71.16;100745.03;5051728;28;20049;-68
2023/03/27 07:27:16;;;;;;;5.15;0.93;;;;;;;5.50;70.57;100749.22;5033065;28;20515;-68
2023/03/27 07:29:42;;;;;;;2.40;0.77;;;;;;;5.56;69.87;100743.22;5033584;28;20388;-68
2023/03/27 07:32:07;;;;;;;1.95;0.98;;;;;;;5.47;67.68;100754.06;5033350;28;20053;-68
2023/03/27 07:34:33;;;;;;;1.70;1.00;;;;;;;5.56;68.61;100735.19;5016856;28;20120;-68
2023/03/27 07:36:58;;;;;;;2.83;1.02;;;;;;;5.54;68.99;100750.53;5050568;28;20063;-68
2023/03/27 07:39:24;;;;;;;3.88;1.02;;;;;;;5.24;68.66;100711.19;5050946;28;20545;-68
2023/03/27 07:41:50;;;;;;;4.18;1.23;;;;;;;5.45;68.31;100750.69;5051326;28;20040;-68
2023/03/27 07:44:17;;;;;;;3.03;1.38;;;;;;;5.51;67.01;100742.03;5034121;28;20436;-68
2023/03/27 07:46:43;;;;;;;2.72;0.90;;;;;;;5.47;66.49;100730.03;5033910;28;20024;-68
2023/03/27 07:49:09;;;;;;;5.93;0.90;;;;;;;5.35;65.80;100730.34;5050884;28;20040;-69
2023/03/27 07:51:37;;;;;;;2.88;0.55;;;;;;;5.47;65.70;100746.88;5051129;28;20032;-68
2023/03/27 07:54:03;;;;;;;4.22;0.60;;;;;;;5.51;64.37;100750.88;5051213;28;20350;-68
2023/03/27 07:56:33;;;;;;;3.63;0.60;;;;;;;5.61;63.22;100751.53;5051107;28;20158;-68
2023/03/27 07:58:59;;;;;;;0.70;0.30;;;;;;;5.67;62.15;100751.88;5053402;28;20044;-68
2023/03/27 08:01:25;;;;;;;0.90;0.40;;;;;;;5.77;61.44;100752.53;5055151;28;20033;-69
2023/03/27 08:03:51;;;;;;;0.95;0.30;;;;;;;5.59;60.21;100726.81;5055116;28;20021;-68
2023/03/27 08:06:17;;;;;;;2.75;0.60;;;;;;;5.78;59.65;100743.50;5056113;28;20549;-68
2023/03/27 08:08:43;;;;;;;4.97;0.60;;;;;;;5.87;57.98;100753.16;5054458;28;20115;-67
2023/03/27 08:11:08;;;;;;;1.48;0.50;;;;;;;6.03;56.91;100744.31;5053588;28;20025;-68
2023/03/27 08:13:34;;;;;;;0.68;0.40;;;;;;;6.19;55.25;100740.75;5054726;28;20451;-68
2023/03/27 08:16:09;;;;;;;2.05;0.38;;;;;;;6.27;54.84;100751.44;5036612;28;20033;-68
2023/03/27 08:18:35;;;;;;;;;;;;;;;6.09;46.66;100747.16;5054852;28;20025;-68
2023/03/27 08:21:02;;;;;;;1.25;0.60;;;;;;;5.61;51.67;100754.19;5020182;28;20346;-69
2023/03/27 08:23:29;;;;;;;4.78;0.80;;;;;;;5.32;52.03;100751.19;5054562;28;20041;-68
2023/03/27 08:25:59;;;;;;;1.75;0.80;;;;;;;5.21;53.78;100730.19;5020085;28;20519;-68
2023/03/27 08:28:29;;;;;;;0.77;0.50;;;;;;;5.26;53.93;100749.19;5036327;28;20090;-68
2023/03/27 08:30:55;;;;;;;2.88;0.68;;;;;;;4.97;53.94;100705.16;5036876;28;20033;-68
2023/03/27 08:33:21;;;;;;;1.25;0.88;;;;;;;5.23;53.92;100754.84;5019635;28;20032;-68
2023/03/27 08:35:48;;;;;;;2.53;0.75;;;;;;;5.16;53.45;100744.00;5054131;28;20025;-69
2023/03/27 08:38:14;;;;;;;2.83;0.80;;;;;;;5.30;53.67;100746.03;5036403;28;20033;-69
2023/03/27 08:40:49;;;;;;;4.25;0.63;;;;;;;5.32;52.93;100748.53;5054041;28;20043;-69
2023/03/27 08:43:20;;;;;;;5.35;0.75;;;;;;;5.35;53.50;100762.38;5035882;28;20031;-68
2023/03/27 08:45:52;;;;;;;3.55;0.63;;;;;;;5.34;52.77;100752.69;5053801;28;20031;-69
2023/03/27 08:48:28;;;;;;;0.70;0.38;;;;;;;5.35;51.46;100753.53;5053809;28;20021;-68
2023/03/27 08:51:12;;;;;;;4.38;0.70;;;;;;;5.41;50.70;100753.69;5035775;28;20032;-68
2023/03/27 08:53:45;;;;;;;0.95;0.45;;;;;;;5.33;50.58;100760.84;5053562;28;20108;-69
2023/03/27 08:56:14;;;;;;;0.95;0.60;;;;;;;5.36;50.31;100744.53;5053942;28;20017;-69
2023/03/27 08:58:40;;;;;;;1.77;0.60;;;;;;;5.39;52.15;100752.19;5076264;28;20096;-68
2023/03/27 09:01:44;;;;;;;0.70;0.50;;;;;;;5.27;50.87;100756.22;5060679;28;20548;-69
2023/03/27 09:04:58;;;;;;;1.33;0.55;;;;;;;5.19;51.77;100763.19;5051463;28;20544;-68
2023/03/27 09:07:58;;;;;;;1.45;0.50;;;;;;;4.80;52.37;100762.09;5016604;28;20096;-68
2023/03/27 09:10:48;;;;;;;2.60;0.73;;;;;;;4.87;52.33;100763.97;5053990;28;20025;-68
2023/03/27 09:13:17;;;;;;;1.42;0.73;;;;;;;4.98;52.18;100764.66;5036672;28;20028;-68
2023/03/27 09:16:02;;;;;;;3.42;0.60;;;;;;;4.91;50.87;100759.97;5037659;28;20033;-68
2023/03/27 09:18:52;;;;;;;3.92;0.60;;;;;;;4.98;50.68;100770.81;5035703;28;20029;-68
2023/03/27 09:21:45;;;;;;;0.80;0.50;;;;;;;4.78;49.97;100774.78;5035651;28;20031;-68
2023/03/27 09:24:26;;;;;;;0.90;0.38;;;;;;;4.58;49.65;100775.03;5035720;28;20032;-68
2023/03/27 09:26:52;;;;;;;0.50;0.40;;;;;;;4.68;48.65;100781.06;5036213;28;20047;-69
2023/03/27 09:29:28;;;;;;;1.42;0.80;;;;;;;4.69;48.26;100769.41;5019482;28;20067;-68
2023/03/27 09:31:56;;;;;;;1.63;0.50;;;;;;;4.61;47.54;100777.38;5037925;28;20040;-68
2023/03/27 09:34:25;;;;;;;1.45;0.38;;;;;;;4.70;47.11;100783.56;5054525;28;20033;-68
2023/03/27 09:36:51;;;;;;;2.38;0.50;;;;;;;4.77;47.12;100771.28;5059787;28;20486;-68
2023/03/27 09:39:21;;;;;;;1.60;0.40;;;;;;;4.68;46.95;100767.75;5019980;28;20028;-67
2023/03/27 09:41:56;;;;;;;5.25;0.40;;;;;;;4.91;47.47;100769.81;5037025;28;20027;-68
2023/03/27 09:44:27;;;;;;;1.67;0.70;;;;;;;5.03;47.50;100779.16;5035719;28;20088;-68
2023/03/27 09:47:15;;;;;;;1.58;0.70;;;;;;;5.03;47.49;100770.31;5058388;28;20025;-68
2023/03/27 09:49:55;;;;;;;1.92;0.40;;;;;;;5.12;48.52;100783.50;5053820;28;20070;-68
2023/03/27 09:52:36;;;;;;;0.47;0.30;;;;;;;4.91;48.98;100778.66;5053510;28;20079;-67
2023/03/27 09:55:19;;;;;;;1.75;0.50;;;;;;;4.87;49.07;100769.31;5053277;28;20104;-68
2023/03/27 09:57:45;;;;;;;0.52;0.32;;;;;;;4.98;50.15;100778.00;5052956;28;20098;-69
2023/03/27 10:00:33;;;;;;;1.52;0.40;;;;;;;4.81;49.36;100769.97;5052643;28;20476;-69
2023/03/27 10:02:59;;;;;;;0.98;0.50;;;;;;;4.85;50.75;100776.63;5053568;28;20039;-69
2023/03/27 10:05:25;;;;;;;0.73;0.40;;;;;;;5.06;50.22;100778.00;5052649;28;20033;-69
2023/03/27 10:07:51;;;;;;;1.80;0.47;;;;;;;5.15;50.01;100782.34;5034845;28;20061;-69
2023/03/27 10:10:19;;;;;;;1.15;0.30;;;;;;;5.22;49.84;100779.88;5034485;28;20025;-69
2023/03/27 10:12:57;;;;;;;0.65;0.30;;;;;;;5.46;50.65;100779.88;5051506;28;20025;-69
2023/03/27 10:15:37;;;;;;;0.30;0.20;;;;;;;5.39;51.07;100777.03;5052009;28;20032;-69
2023/03/27 10:18:26;;;;;;;0.70;0.30;;;;;;;5.23;50.25;100784.19;5052310;28;20110;-69
2023/03/27 10:20:58;;;;;;;0.85;0.40;;;;;;;5.19;50.27;100771.19;5051801;28;20025;-69
2023/03/27 10:23:38;;;;;;;0.63;0.30;;;;;;;5.13;49.98;100779.88;5052854;28;20032;-69
2023/03/27 10:26:07;;;;;;;1.05;0.43;;;;;;;4.92;49.15;100774.97;5052383;28;20044;-69
2023/03/27 10:28:35;;;;;;;1.02;0.30;;;;;;;4.83;50.35;100772.44;5051670;28;20060;-69
2023/03/27 10:31:22;;;;;;;0.70;0.30;;;;;;;4.79;50.64;100784.44;5052566;28;20408;-69
2023/03/27 10:33:48;;;;;;;0.77;0.30;;;;;;;4.79;51.21;100776.44;5059446;28;20183;-69
2023/03/27 10:36:13;;;;;;;1.40;0.40;;;;;;;4.78;50.67;100783.59;5055526;28;20192;-68
2023/03/27 10:38:41;;;;;;;0.70;0.28;;;;;;;4.69;51.04;100777.41;5054615;28;20440;-67
2023/03/27 10:41:13;;;;;;;1.58;0.35;;;;;;;4.80;51.31;100772.78;5038022;28;20025;-67
2023/03/27 10:43:47;;;;;;;1.90;0.40;;;;;;;4.98;51.41;100776.16;5035940;28;20036;-68
2023/03/27 10:46:20;;;;;;;0.55;0.32;;;;;;;5.13;50.61;100773.69;5052392;28;20399;-69
2023/03/27 10:49:10;;;;;;;1.95;0.40;;;;;;;5.22;50.61;100779.88;5033836;28;20167;-68
2023/03/27 10:52:06;;;;;;;1.27;0.32;;;;;;;4.94;51.71;100769.50;5052229;28;20139;-68
2023/03/27 10:54:37;;;;;;;0.80;0.30;;;;;;;5.10;51.13;100776.66;5052392;28;20060;-69
2023/03/27 10:57:16;;;;;;;0.82;0.32;;;;;;;4.93;50.55;100773.13;5034773;28;20392;-69
2023/03/27 10:59:54;;;;;;;0.65;0.25;;;;;;;4.94;50.58;100773.00;5053037;28;20032;-68
2023/03/27 11:02:30;;;;;;;2.85;0.40;;;;;;;5.08;51.12;100784.00;5053951;28;20112;-68
2023/03/27 11:05:22;;;;;;;0.50;0.30;;;;;;;5.14;51.45;100778.84;5036638;28;20024;-69
2023/03/27 11:07:57;;;;;;;1.38;0.40;;;;;;;4.76;49.95;100763.44;5047407;28;20091;-69
2023/03/27 11:10:30;;;;;;;1.58;0.30;;;;;;;4.70;50.08;100775.56;5051493;28;20021;-69
2023/03/27 11:13:07;;;;;;;0.85;0.35;;;;;;;5.10;48.97;100785.53;5051502;28;20033;-68
2023/03/27 11:15:41;;;;;;;0.95;0.30;;;;;;;5.00;49.56;100767.97;5033641;28;20238;-68
2023/03/27 11:18:24;;;;;;;1.95;0.30;;;;;;;5.24;49.29;100788.56;5033489;28;20025;-69
2023/03/27 11:20:59;;;;;;;0.80;0.30;;;;;;;5.23;48.42;100795.72;5051506;28;20036;-68
2023/03/27 11:23:56;;;;;;;0.73;0.40;;;;;;;5.26;46.54;100791.88;5051642;28;20021;-68
2023/03/27 11:26:32;;;;;;;0.93;0.40;;;;;;;5.34;47.47;100800.72;5028423;28;20068;-69
2023/03/27 11:29:12;;;;;;;0.65;0.32;;;;;;;5.36;47.28;100800.56;5051956;28;20075;-69
2023/03/27 11:31:45;;;;;;;0.80;0.30;;;;;;;5.28;47.00;100800.56;5053116;28;20419;-69
2023/03/27 11:34:24;;;;;;;0.40;0.30;;;;;;;5.22;47.83;100806.53;5077574;28;20013;-68
2023/03/27 11:37:08;;;;;;;0.40;0.30;;;;;;;5.30;47.53;100804.72;5061871;28;20025;-69
2023/03/27 11:39:37;;;;;;;0.45;0.40;;;;;;;5.43;47.81;100809.59;5059748;28;20164;-68
2023/03/27 11:42:17;;;;;;;0.63;0.30;;;;;;;5.44;48.85;100810.41;5058129;28;20119;-69
2023/03/27 11:44:43;;;;;;;1.15;0.35;;;;;;;5.56;48.86;100806.41;5055553;28;20032;-69
2023/03/27 11:47:32;;;;;;;1.48;0.50;;;;;;;5.57;49.18;100808.09;5056178;28;20453;-70
2023/03/27 11:50:10;;;;;;;1.13;0.40;;;;;;;5.45;49.08;100814.75;5037029;28;20029;-69
2023/03/27 11:52:42;;;;;;;0.95;0.30;;;;;;;5.46;49.45;100816.41;5055113;28;20028;-69